createdAt,value
2023-05-10T00:02:04.575Z,17.40
2023-05-10T00:04:33.803Z,20.48
2023-05-10T00:07:02.457Z,21.75
2023-05-10T00:09:29.475Z,21.42
2023-05-10T00:11:56.637Z,18.95
2023-05-10T00:14:23.600Z,22.55
2023-05-10T00:16:50.693Z,20.23
2023-05-10T00:19:17.858Z,19.95
2023-05-10T00:21:47.978Z,22.02
2023-05-10T00:24:14.978Z,20.52
2023-05-10T00:26:43.733Z,25.05
2023-05-10T00:29:10.737Z,19.98
2023-05-10T00:31:37.787Z,23.55
2023-05-10T00:34:06.085Z,22.42
2023-05-10T00:36:37.226Z,22.58
2023-05-10T00:39:05.382Z,23.35
2023-05-10T00:41:33.772Z,19.67
2023-05-10T00:44:03.144Z,21.10
2023-05-10T00:46:31.119Z,24.15
2023-05-10T00:49:00.958Z,21.67
2023-05-10T00:51:28.434Z,22.50
2023-05-10T00:53:57.894Z,19.42
2023-05-10T00:56:26.683Z,26.40
2023-05-10T00:58:54.327Z,19.58
2023-05-10T01:01:24.059Z,23.63
2023-05-10T01:03:53.370Z,25.50
2023-05-10T01:06:21.220Z,23.40
2023-05-10T01:08:48.440Z,22.27
2023-05-10T01:11:16.224Z,22.45
2023-05-10T01:13:48.569Z,23.00
2023-05-10T01:16:18.139Z,22.60
2023-05-10T01:18:46.130Z,25.73
2023-05-10T01:21:35.516Z,21.42
2023-05-10T01:24:28.411Z,27.98
2023-05-10T01:30:15.897Z,27.50
2023-05-10T01:35:21.491Z,21.10
2023-05-10T01:38:00.962Z,28.27
2023-05-10T01:40:45.200Z,29.40
2023-05-10T01:43:20.539Z,26.13
2023-05-10T01:45:50.813Z,23.17
2023-05-10T01:48:20.944Z,27.00
2023-05-10T01:50:50.844Z,24.73
2023-05-10T01:53:21.427Z,26.23
2023-05-10T01:55:52.066Z,29.48
2023-05-10T01:58:29.352Z,26.48
2023-05-10T02:01:01.907Z,27.52
2023-05-10T02:05:58.772Z,31.40
2023-05-10T02:08:26.708Z,26.73
2023-05-10T02:10:56.683Z,28.77
2023-05-10T02:13:25.321Z,27.50
2023-05-10T02:15:53.435Z,29.50
2023-05-10T02:18:25.094Z,29.38
2023-05-10T02:20:55.134Z,27.33
2023-05-10T02:23:24.213Z,28.33
2023-05-10T02:25:52.795Z,33.47
2023-05-10T02:28:23.541Z,30.52
2023-05-10T02:30:51.559Z,26.80
2023-05-10T02:33:19.553Z,25.15
2023-05-10T02:35:47.607Z,26.85
2023-05-10T02:38:16.512Z,21.30
2023-05-10T02:40:44.997Z,24.10
2023-05-10T02:43:15.497Z,20.05
2023-05-10T02:45:44.207Z,25.50
2023-05-10T02:48:11.352Z,22.85
2023-05-10T02:50:39.256Z,20.40
2023-05-10T02:53:17.675Z,20.67
2023-05-10T02:55:51.651Z,21.17
2023-05-10T02:58:22.382Z,25.80
2023-05-10T03:00:49.650Z,23.15
2023-05-10T03:03:16.627Z,21.67
2023-05-10T03:05:44.538Z,25.50
2023-05-10T03:08:11.918Z,22.35
2023-05-10T03:10:49.010Z,23.85
2023-05-10T03:13:43.297Z,23.60
2023-05-10T03:16:18.078Z,33.55
2023-05-10T03:19:31.413Z,32.63
2023-05-10T03:22:03.234Z,29.55
2023-05-10T03:24:36.411Z,35.08
2023-05-10T03:27:06.315Z,35.25
2023-05-10T03:29:34.160Z,31.75
2023-05-10T03:32:01.554Z,29.00
2023-05-10T03:34:33.466Z,33.38
2023-05-10T03:37:02.417Z,31.98
2023-05-10T03:39:31.833Z,37.10
2023-05-10T03:42:00.567Z,37.47
2023-05-10T03:44:28.547Z,37.67
2023-05-10T03:46:58.531Z,37.95
2023-05-10T03:49:29.927Z,41.17
2023-05-10T03:52:01.207Z,44.70
2023-05-10T03:54:35.410Z,44.60
2023-05-10T03:57:11.045Z,44.38
2023-05-10T03:59:46.531Z,45.63
2023-05-10T04:02:14.944Z,47.78
2023-05-10T04:04:43.111Z,49.80
2023-05-10T04:07:11.420Z,51.25
2023-05-10T04:10:10.560Z,45.63
2023-05-10T04:12:42.599Z,45.78
2023-05-10T04:15:10.145Z,47.80
2023-05-10T04:17:37.120Z,50.20
2023-05-10T04:20:08.541Z,47.05
2023-05-10T04:22:36.878Z,49.63
2023-05-10T04:25:03.957Z,45.65
2023-05-10T04:27:30.881Z,54.20
2023-05-10T04:29:58.611Z,57.80
2023-05-10T04:32:25.731Z,47.80
2023-05-10T04:34:54.061Z,49.88
2023-05-10T04:37:24.113Z,61.92
2023-05-10T04:39:51.197Z,52.90
2023-05-10T04:42:18.109Z,48.90
2023-05-10T04:44:47.112Z,51.92
2023-05-10T04:47:14.524Z,59.85
2023-05-10T04:49:45.011Z,57.70
2023-05-10T04:52:12.542Z,51.78
2023-05-10T04:54:39.499Z,55.10
2023-05-10T04:57:06.414Z,56.65
2023-05-10T04:59:33.414Z,52.67
2023-05-10T05:02:00.366Z,52.72
2023-05-10T05:04:28.324Z,53.53
2023-05-10T05:06:56.248Z,45.63
2023-05-10T05:09:23.089Z,47.53
2023-05-10T05:11:51.626Z,48.42
2023-05-10T05:14:26.281Z,41.67
2023-05-10T05:16:54.196Z,36.88
2023-05-10T05:19:22.514Z,31.13
2023-05-10T05:21:50.983Z,34.25
2023-05-10T05:24:18.132Z,30.77
2023-05-10T05:26:47.776Z,32.97
2023-05-10T05:29:15.738Z,28.90
2023-05-10T05:31:42.913Z,30.38
2023-05-10T05:34:11.078Z,32.58
2023-05-10T05:36:43.009Z,33.00
2023-05-10T05:39:10.432Z,35.17
2023-05-10T05:41:37.408Z,26.95
2023-05-10T05:44:04.300Z,34.28
2023-05-10T05:46:31.222Z,30.67
2023-05-10T05:48:58.303Z,39.78
2023-05-10T05:51:25.561Z,32.45
2023-05-10T05:53:52.541Z,30.08
2023-05-10T05:56:25.094Z,30.25
2023-05-10T05:58:52.676Z,33.25
2023-05-10T06:01:22.251Z,27.38
2023-05-10T06:03:50.932Z,27.60
2023-05-10T06:06:18.896Z,24.85
2023-05-10T06:08:45.964Z,23.52
2023-05-10T06:11:13.073Z,28.08
2023-05-10T06:13:39.981Z,28.88
2023-05-10T06:16:07.509Z,23.75
2023-05-10T06:18:35.715Z,24.63
2023-05-10T06:21:02.672Z,14.40
2023-05-10T06:23:29.813Z,21.77
2023-05-10T06:25:57.840Z,18.55
2023-05-10T06:28:25.020Z,27.65
2023-05-10T06:30:53.099Z,27.85
2023-05-10T06:33:20.070Z,13.80
2023-05-10T06:35:51.226Z,16.23
2023-05-10T06:38:18.855Z,15.98
2023-05-10T06:40:45.920Z,15.75
2023-05-10T06:43:12.978Z,13.18
2023-05-10T06:45:40.006Z,15.32
2023-05-10T06:48:07.260Z,13.60
2023-05-10T06:50:34.563Z,11.90
2023-05-10T06:53:02.776Z,11.90
2023-05-10T06:55:30.772Z,11.57
2023-05-10T06:57:57.836Z,11.85
2023-05-10T07:00:25.202Z,12.73
2023-05-10T07:02:56.036Z,16.10
2023-05-10T07:05:23.491Z,14.90
2023-05-10T07:08:02.073Z,13.60
2023-05-10T07:10:31.916Z,19.50
2023-05-10T07:13:02.468Z,14.77
2023-05-10T07:15:29.744Z,17.92
2023-05-10T07:18:07.657Z,15.48
2023-05-10T07:20:37.388Z,18.25
2023-05-10T07:23:04.411Z,16.45
2023-05-10T07:25:31.813Z,19.75
2023-05-10T07:28:02.075Z,20.25
2023-05-10T07:30:29.192Z,20.92
2023-05-10T07:32:56.471Z,17.13
2023-05-10T07:35:24.653Z,24.27
2023-05-10T07:37:51.533Z,18.92
2023-05-10T07:40:19.700Z,23.65
2023-05-10T07:42:46.693Z,21.50
2023-05-10T07:45:14.122Z,18.48
2023-05-10T07:47:41.379Z,24.90
2023-05-10T07:50:09.055Z,19.52
2023-05-10T07:52:36.123Z,17.35
2023-05-10T07:55:05.615Z,18.98
2023-05-10T07:57:38.665Z,20.33
2023-05-10T08:00:09.742Z,15.90
2023-05-10T08:02:42.961Z,13.18
2023-05-10T08:05:10.512Z,13.73
2023-05-10T08:07:37.511Z,14.15
2023-05-10T08:10:06.053Z,13.30
2023-05-10T08:12:32.983Z,17.45
2023-05-10T08:15:01.169Z,16.00
2023-05-10T08:17:29.111Z,14.93
2023-05-10T08:19:56.521Z,11.10
2023-05-10T08:22:23.467Z,15.20
2023-05-10T08:25:00.710Z,12.60
2023-05-10T08:27:56.614Z,13.38
2023-05-10T08:30:23.775Z,11.43
2023-05-10T08:33:21.168Z,10.00
2023-05-10T08:35:48.539Z,14.45
2023-05-10T08:38:15.745Z,10.88
2023-05-10T08:40:44.963Z,10.68
2023-05-10T08:43:16.471Z,11.23
2023-05-10T08:45:48.344Z,10.73
2023-05-10T08:48:16.356Z,11.88
2023-05-10T08:50:44.060Z,9.70
2023-05-10T08:53:14.135Z,11.80
2023-05-10T08:55:43.872Z,12.27
2023-05-10T08:58:11.084Z,15.35
2023-05-10T09:00:38.755Z,12.93
2023-05-10T09:03:07.324Z,10.57
2023-05-10T09:05:34.559Z,10.23
2023-05-10T09:08:01.609Z,11.48
2023-05-10T09:10:31.197Z,12.10
2023-05-10T09:12:59.636Z,13.13
2023-05-10T09:15:27.610Z,13.65
2023-05-10T09:17:56.086Z,11.02
2023-05-10T09:20:23.552Z,12.05
2023-05-10T09:22:50.620Z,11.15
2023-05-10T09:25:18.379Z,10.68
2023-05-10T09:27:48.024Z,13.15
2023-05-10T09:30:32.735Z,10.13
2023-05-10T09:33:00.762Z,12.00
2023-05-10T09:35:30.230Z,12.10
2023-05-10T09:38:01.979Z,11.82
2023-05-10T09:40:30.687Z,8.80
2023-05-10T09:43:08.027Z,7.35
2023-05-10T09:45:38.600Z,9.15
2023-05-10T09:48:07.166Z,8.73
2023-05-10T09:50:35.220Z,8.15
2023-05-10T09:53:04.461Z,7.32
2023-05-10T09:55:41.942Z,10.50
2023-05-10T09:58:12.658Z,9.38
2023-05-10T10:00:41.984Z,8.02
2023-05-10T10:03:15.280Z,6.13
2023-05-10T10:05:44.570Z,7.15
2023-05-10T10:08:13.032Z,8.95
2023-05-10T10:10:42.057Z,8.45
2023-05-10T10:13:09.283Z,10.38
2023-05-10T10:15:36.432Z,9.48
2023-05-10T10:18:07.314Z,7.65
2023-05-10T10:20:35.114Z,9.82
2023-05-10T10:23:01.964Z,8.05
2023-05-10T10:25:30.321Z,11.35
2023-05-10T10:27:59.895Z,9.40
2023-05-10T10:30:49.315Z,8.25
2023-05-10T10:33:49.686Z,8.02
2023-05-10T10:36:17.060Z,10.35
2023-05-10T10:38:50.127Z,8.48
2023-05-10T10:41:34.788Z,7.80
2023-05-10T10:44:26.938Z,8.32
2023-05-10T10:47:13.501Z,7.10
2023-05-10T10:49:49.972Z,7.03
2023-05-10T10:52:32.143Z,12.45
2023-05-10T10:55:13.211Z,7.43
2023-05-10T10:57:48.340Z,8.98
2023-05-10T11:00:24.662Z,7.80
2023-05-10T11:03:09.728Z,10.95
2023-05-10T11:05:46.542Z,11.48
2023-05-10T11:08:13.484Z,9.85
2023-05-10T11:10:41.371Z,10.93
2023-05-10T11:13:11.172Z,8.52
2023-05-10T11:15:40.462Z,8.98
2023-05-10T11:18:30.336Z,13.00
2023-05-10T11:21:06.017Z,8.05
2023-05-10T11:23:48.550Z,9.10
2023-05-10T11:26:17.979Z,9.20
2023-05-10T11:28:46.448Z,7.75
2023-05-10T11:31:21.134Z,8.40
2023-05-10T11:33:50.982Z,11.10
2023-05-10T11:36:25.394Z,7.55
2023-05-10T11:38:54.445Z,7.63
2023-05-10T11:41:22.971Z,8.85
2023-05-10T11:43:54.607Z,7.65
2023-05-10T11:46:24.276Z,6.67
2023-05-10T11:48:53.954Z,7.53
2023-05-10T11:51:22.385Z,6.80
2023-05-10T11:53:51.496Z,5.60
2023-05-10T11:56:21.730Z,5.78
2023-05-10T11:58:55.679Z,6.65
2023-05-10T12:01:25.214Z,8.23
2023-05-10T12:03:54.112Z,6.38
2023-05-10T12:06:23.059Z,9.85
2023-05-10T12:08:56.449Z,10.32
2023-05-10T12:11:27.378Z,7.63
2023-05-10T12:13:55.667Z,10.80
2023-05-10T12:16:29.817Z,8.35
2023-05-10T12:19:01.642Z,7.93
2023-05-10T12:21:32.436Z,9.07
2023-05-10T12:24:06.232Z,10.88
2023-05-10T12:26:33.712Z,8.48
2023-05-10T12:29:17.556Z,9.20
2023-05-10T12:31:59.752Z,8.95
2023-05-10T12:37:06.728Z,10.13
2023-05-10T12:39:44.676Z,11.45
2023-05-10T12:42:13.951Z,9.52
2023-05-10T12:44:41.120Z,8.98
2023-05-10T12:47:08.323Z,11.23
2023-05-10T12:49:35.426Z,9.57
2023-05-10T12:52:03.443Z,10.40
2023-05-10T12:54:32.584Z,10.63
2023-05-10T12:56:59.720Z,13.02
2023-05-10T12:59:26.698Z,9.57
2023-05-10T13:01:53.774Z,9.18
2023-05-10T13:04:21.021Z,9.57
2023-05-10T13:06:48.233Z,7.90
2023-05-10T13:09:15.240Z,8.43
2023-05-10T13:11:42.492Z,6.95
2023-05-10T13:14:09.738Z,6.78
2023-05-10T13:16:38.803Z,6.93
2023-05-10T13:19:07.306Z,7.47
2023-05-10T13:21:34.271Z,8.15
2023-05-10T13:24:02.353Z,7.18
2023-05-10T13:26:29.897Z,6.07
2023-05-10T13:28:56.992Z,5.18
2023-05-10T13:31:26.289Z,7.05
2023-05-10T13:34:04.235Z,6.43
2023-05-10T13:40:01.809Z,9.48
2023-05-10T13:42:29.406Z,10.23
2023-05-10T13:45:00.857Z,12.20
2023-05-10T13:47:31.599Z,11.75
2023-05-10T13:50:06.893Z,11.00
2023-05-10T13:52:39.445Z,9.85
2023-05-10T13:55:07.042Z,10.93
2023-05-10T13:57:35.500Z,10.48
2023-05-10T14:00:02.986Z,11.88
2023-05-10T14:05:05.355Z,13.05
2023-05-10T14:07:32.553Z,13.38
2023-05-10T14:10:01.015Z,15.13
2023-05-10T14:12:28.686Z,17.48
2023-05-10T14:14:55.813Z,16.98
2023-05-10T14:17:26.315Z,14.40
2023-05-10T14:19:55.415Z,18.92
2023-05-10T14:22:22.471Z,19.67
2023-05-10T14:24:49.874Z,22.73
2023-05-10T14:27:17.839Z,17.95
2023-05-10T14:29:44.964Z,16.45
2023-05-10T14:32:12.100Z,16.77
2023-05-10T14:34:39.350Z,18.85
2023-05-10T14:37:06.802Z,14.82
2023-05-10T14:39:59.503Z,15.63
2023-05-10T14:44:54.817Z,16.13
2023-05-10T14:47:22.926Z,15.35
2023-05-10T14:49:49.825Z,16.40
2023-05-10T14:52:18.438Z,16.38
2023-05-10T14:54:49.366Z,18.55
2023-05-10T14:57:17.357Z,18.48
2023-05-10T14:59:45.715Z,19.52
2023-05-10T15:02:14.932Z,18.52
2023-05-10T15:04:49.066Z,17.23
2023-05-10T15:07:17.388Z,17.05
2023-05-10T15:09:45.464Z,14.85
2023-05-10T15:12:15.632Z,16.52
2023-05-10T15:14:43.716Z,16.33
2023-05-10T15:17:11.649Z,16.00
2023-05-10T15:19:38.646Z,15.85
2023-05-10T15:22:06.797Z,13.88
2023-05-10T15:24:36.074Z,138.88
2023-05-10T15:27:03.234Z,13.50
2023-05-10T15:29:30.688Z,13.88
2023-05-10T15:31:57.672Z,11.38
2023-05-10T15:34:24.973Z,8.73
2023-05-10T15:36:55.710Z,10.43
2023-05-10T15:39:27.261Z,6.53
2023-05-10T15:41:56.578Z,6.50
2023-05-10T15:44:23.528Z,17.55
2023-05-10T15:46:52.911Z,8.02
2023-05-10T15:49:20.014Z,9.18
2023-05-10T15:51:47.204Z,11.70
2023-05-10T15:54:16.516Z,9.75
2023-05-10T15:56:43.505Z,12.02
2023-05-10T15:59:12.005Z,19.23
2023-05-10T16:01:38.997Z,20.55
2023-05-10T16:04:06.268Z,11.10
2023-05-10T16:06:34.256Z,6.95
2023-05-10T16:09:01.888Z,8.77
2023-05-10T16:11:32.050Z,23.63
2023-05-10T16:14:07.078Z,11.88
2023-05-10T16:16:40.058Z,11.40
2023-05-10T16:19:07.654Z,11.67
2023-05-10T16:21:34.692Z,14.05
2023-05-10T16:24:06.746Z,14.77
2023-05-10T16:26:41.687Z,16.73
2023-05-10T16:29:09.549Z,14.05
2023-05-10T16:31:36.844Z,18.23
2023-05-10T16:34:03.914Z,17.90
2023-05-10T16:36:31.655Z,19.35
2023-05-10T16:39:00.298Z,17.05
2023-05-10T16:41:52.262Z,22.83
2023-05-10T16:44:26.166Z,17.33
2023-05-10T16:46:55.929Z,18.50
2023-05-10T16:49:26.215Z,18.30
2023-05-10T16:51:56.710Z,18.85
2023-05-10T16:54:27.422Z,20.40
2023-05-10T16:59:27.822Z,24.25
2023-05-10T17:01:55.848Z,23.58
2023-05-10T17:04:23.362Z,18.23
2023-05-10T17:06:50.724Z,20.08
2023-05-10T17:09:20.209Z,24.33
2023-05-10T17:11:47.125Z,14.45
2023-05-10T17:14:14.087Z,18.63
2023-05-10T17:16:44.301Z,23.50
2023-05-10T17:19:11.609Z,68.28
2023-05-10T17:21:38.618Z,22.75
2023-05-10T17:24:05.807Z,21.30
2023-05-10T17:26:34.938Z,20.25
2023-05-10T17:29:04.909Z,23.42
2023-05-10T17:31:35.360Z,19.38
2023-05-10T17:34:05.689Z,16.98
2023-05-10T17:36:33.598Z,20.15
2023-05-10T17:39:01.024Z,23.45
2023-05-10T17:41:28.568Z,17.58
2023-05-10T17:43:55.577Z,24.35
2023-05-10T17:46:22.840Z,23.00
2023-05-10T17:48:50.767Z,18.20
2023-05-10T17:51:18.956Z,19.35
2023-05-10T17:53:46.102Z,20.75
2023-05-10T17:56:13.136Z,21.00
2023-05-10T17:58:40.302Z,20.38
2023-05-10T18:01:09.260Z,19.42
2023-05-10T18:03:36.344Z,22.25
2023-05-10T18:06:04.652Z,23.17
2023-05-10T18:08:34.061Z,22.02
2023-05-10T18:11:01.359Z,26.33
2023-05-10T18:13:28.704Z,21.80
2023-05-10T18:15:59.348Z,23.30
2023-05-10T18:18:29.239Z,23.10
2023-05-10T18:21:00.943Z,24.80
2023-05-10T18:23:29.072Z,27.40
2023-05-10T18:30:03.247Z,27.00
2023-05-10T18:32:41.787Z,32.42
2023-05-10T18:35:41.066Z,31.27
2023-05-10T18:38:12.746Z,30.27
2023-05-10T18:40:44.548Z,41.15
2023-05-10T18:43:19.676Z,36.75
2023-05-10T18:45:47.164Z,43.25
2023-05-10T18:48:16.255Z,46.35
2023-05-10T18:50:45.008Z,45.58
2023-05-10T18:53:23.802Z,40.88
2023-05-10T18:56:00.004Z,42.92
2023-05-10T18:58:35.728Z,45.90
2023-05-10T19:01:05.516Z,41.47
2023-05-10T19:03:34.539Z,54.10
2023-05-10T19:06:09.493Z,44.40
2023-05-10T19:08:39.360Z,56.97
2023-05-10T19:11:06.987Z,55.00
2023-05-10T19:13:38.670Z,57.10
2023-05-10T19:16:16.990Z,60.78
2023-05-10T19:18:49.989Z,78.50
2023-05-10T19:21:21.171Z,62.17
2023-05-10T19:23:52.828Z,66.65
2023-05-10T19:26:21.731Z,63.53
2023-05-10T19:28:52.722Z,59.83
2023-05-10T19:31:22.619Z,54.15
2023-05-10T19:33:53.862Z,53.58
2023-05-10T19:36:21.871Z,51.60
2023-05-10T19:38:49.107Z,55.33
2023-05-10T19:41:16.260Z,52.97
2023-05-10T19:43:43.768Z,54.10
2023-05-10T19:46:12.853Z,53.58
2023-05-10T19:48:47.626Z,54.50
2023-05-10T19:51:28.309Z,53.33
2023-05-10T19:53:58.420Z,48.33
2023-05-10T19:56:27.179Z,45.83
2023-05-10T19:58:56.238Z,50.45
2023-05-10T20:01:25.578Z,44.28
2023-05-10T20:03:58.441Z,43.30
2023-05-10T20:11:21.722Z,41.17
2023-05-10T20:13:56.984Z,39.20
2023-05-10T20:16:26.589Z,45.58
2023-05-10T20:18:55.592Z,41.38
2023-05-10T20:21:23.933Z,41.67
2023-05-10T20:23:50.949Z,43.17
2023-05-10T20:26:18.507Z,38.05
2023-05-10T20:28:48.148Z,44.63
2023-05-10T20:31:18.537Z,56.50
2023-05-10T20:33:48.093Z,48.78
2023-05-10T20:36:16.800Z,44.13
2023-05-10T20:38:48.606Z,45.17
2023-05-10T20:41:18.169Z,47.15
2023-05-10T20:43:45.155Z,46.60
2023-05-10T20:46:12.464Z,47.38
2023-05-10T20:48:40.066Z,46.42
2023-05-10T20:51:07.023Z,50.30
2023-05-10T20:53:37.118Z,45.10
2023-05-10T20:56:04.629Z,43.35
2023-05-10T20:58:31.547Z,38.63
2023-05-10T21:00:58.495Z,43.60
2023-05-10T21:03:25.390Z,45.95
2023-05-10T21:05:53.368Z,38.47
2023-05-10T21:08:20.355Z,49.58
2023-05-10T21:10:47.446Z,46.30
2023-05-10T21:13:18.237Z,53.47
2023-05-10T21:15:46.146Z,49.17
2023-05-10T21:18:14.194Z,47.90
2023-05-10T21:20:44.010Z,56.25
2023-05-10T21:23:12.919Z,50.90
2023-05-10T21:25:42.934Z,46.35
2023-05-10T21:28:11.544Z,47.95
2023-05-10T21:30:38.505Z,53.40
2023-05-10T21:33:05.419Z,56.20
2023-05-10T21:35:32.972Z,52.90
2023-05-10T21:37:59.899Z,58.95
2023-05-10T21:40:28.495Z,52.75
2023-05-10T21:42:55.356Z,55.83
2023-05-10T21:45:22.284Z,47.15
2023-05-10T21:47:49.469Z,59.30
2023-05-10T21:50:17.149Z,58.92
2023-05-10T21:52:45.330Z,57.13
2023-05-10T21:55:12.232Z,63.53
2023-05-10T21:57:39.133Z,59.10
2023-05-10T22:00:11.834Z,58.42
2023-05-10T22:02:40.101Z,52.85
2023-05-10T22:05:08.712Z,54.65
2023-05-10T22:07:36.892Z,52.45
2023-05-10T22:10:05.989Z,53.28
2023-05-10T22:12:32.929Z,48.10
2023-05-10T22:15:10.349Z,50.78
2023-05-10T22:17:39.553Z,44.53
2023-05-10T22:20:08.918Z,52.60
2023-05-10T22:22:37.997Z,48.60
2023-05-10T22:25:07.427Z,44.65
2023-05-10T22:27:39.007Z,31.65
2023-05-10T22:30:08.728Z,33.05
2023-05-10T22:32:36.823Z,33.42
2023-05-10T22:35:04.419Z,27.77
2023-05-10T22:37:33.698Z,29.25
2023-05-10T22:40:00.898Z,29.02
2023-05-10T22:42:27.786Z,34.63
2023-05-10T22:44:55.238Z,36.10
2023-05-10T22:47:28.782Z,39.95
2023-05-10T22:49:59.658Z,43.97
2023-05-10T22:52:33.388Z,42.53
2023-05-10T22:55:04.576Z,49.72
2023-05-10T22:57:37.689Z,48.90
2023-05-10T23:00:18.510Z,46.13
2023-05-10T23:02:46.574Z,51.65
2023-05-10T23:05:17.624Z,45.20
2023-05-10T23:07:45.569Z,45.83
2023-05-10T23:10:13.130Z,50.80
2023-05-10T23:12:40.530Z,42.78
2023-05-10T23:15:07.868Z,46.38
2023-05-10T23:17:34.834Z,45.63
2023-05-10T23:20:05.869Z,48.28
2023-05-10T23:22:33.848Z,46.13
2023-05-10T23:25:01.117Z,45.17
2023-05-10T23:27:31.224Z,40.65
2023-05-10T23:30:06.730Z,38.80
2023-05-10T23:32:33.700Z,35.08
2023-05-10T23:35:03.080Z,34.08
2023-05-10T23:37:31.342Z,36.30
2023-05-10T23:39:58.289Z,32.42
2023-05-10T23:42:32.844Z,32.88
2023-05-10T23:44:59.777Z,28.15
2023-05-10T23:47:26.889Z,29.40
2023-05-10T23:49:55.289Z,28.33
2023-05-10T23:52:27.146Z,23.58
2023-05-10T23:54:55.054Z,25.98
2023-05-10T23:57:24.818Z,22.88
2023-05-10T23:59:52.811Z,21.88
